Time;durP1;ratioP1;P1;durP2;ratioP2;P2;SDS_P1;SDS_P2;PMS_P1;PMS_P2;Temp;Humidity;BMP_temperature;BMP_pressure;BME280_temperature;BME280_humidity;BME280_pressure;Samples;Min_cycle;Max_cycle;Signal;HPM_P1;HPM_P2
2023/05/24 00:03:03;;;;;;;8.47;7.67;;;18.20;99.90;;;;;;6274500;28;20211;-65
2023/05/24 00:06:07;;;;;;;9.00;8.10;;;18.20;99.90;;;;;;6277308;28;20227;-65
2023/05/24 00:09:11;;;;;;;9.00;8.20;;;18.20;99.90;;;;;;6277260;28;20564;-65
2023/05/24 00:12:14;;;;;;;9.30;8.60;;;18.20;99.90;;;;;;6277169;28;20561;-65
2023/05/24 00:15:17;;;;;;;10.27;8.33;;;18.10;99.90;;;;;;6277295;28;20466;-65
2023/05/24 00:18:22;;;;;;;10.13;8.80;;;18.10;99.90;;;;;;6277290;28;20231;-65
2023/05/24 00:21:26;;;;;;;8.20;7.40;;;18.10;99.90;;;;;;6276731;28;20477;-65
2023/05/24 00:24:29;;;;;;;9.83;8.93;;;18.10;99.90;;;;;;6277030;28;20571;-65
2023/05/24 00:27:33;;;;;;;9.00;8.17;;;18.10;99.90;;;;;;6276792;28;20243;-65
2023/05/24 00:30:36;;;;;;;8.93;8.13;;;18.00;99.90;;;;;;6276625;28;20486;-65
2023/05/24 00:33:40;;;;;;;9.00;8.20;;;18.10;99.90;;;;;;6277049;28;20977;-65
2023/05/24 00:36:43;;;;;;;10.47;9.23;;;18.00;99.90;;;;;;6276711;28;20238;-66
2023/05/24 00:39:46;;;;;;;8.60;7.80;;;18.00;99.90;;;;;;6276346;28;20485;-65
2023/05/24 00:42:50;;;;;;;8.53;7.80;;;18.00;99.90;;;;;;6276442;28;20239;-66
2023/05/24 00:46:12;;;;;;;9.63;8.03;;;18.00;99.90;;;;;;6276623;28;20778;-66
2023/05/24 00:49:17;;;;;;;14.00;8.40;;;18.00;99.90;;;;;;6276327;28;20497;-65
2023/05/24 00:52:21;;;;;;;9.63;8.73;;;18.00;99.90;;;;;;6276340;28;20611;-65
2023/05/24 00:55:24;;;;;;;9.60;8.70;;;18.00;99.90;;;;;;6276554;28;20969;-65
2023/05/24 00:58:29;;;;;;;9.87;8.97;;;17.90;99.90;;;;;;6274961;28;20473;-65
2023/05/24 01:01:34;;;;;;;8.33;7.60;;;17.90;99.90;;;;;;6277160;28;20474;-65
2023/05/24 01:04:39;;;;;;;10.93;9.73;;;17.90;99.90;;;;;;6276910;28;20477;-65
2023/05/24 01:07:54;;;;;;;9.33;8.40;;;17.80;99.90;;;;;;6275862;28;20481;-65
2023/05/24 01:11:02;;;;;;;9.60;8.60;;;17.80;99.90;;;;;;6276111;28;20462;-65
2023/05/24 01:14:16;;;;;;;9.93;8.67;;;17.80;99.90;;;;;;6275869;28;20212;-66
2023/05/24 01:17:25;;;;;;;9.30;8.40;;;17.90;99.90;;;;;;6275911;28;20470;-66
2023/05/24 01:20:33;;;;;;;8.83;8.03;;;17.80;99.90;;;;;;6275331;28;20238;-65
2023/05/24 01:23:47;;;;;;;8.77;7.97;;;17.90;99.90;;;;;;6275930;28;20466;-65
2023/05/24 01:27:05;;;;;;;11.43;9.57;;;17.90;99.90;;;;;;6275603;28;20306;-65
2023/05/24 01:30:09;;;;;;;11.00;9.57;;;17.80;99.90;;;;;;6275781;28;20954;-65
2023/05/24 01:33:13;;;;;;;12.20;8.03;;;17.70;99.90;;;;;;6275280;28;20482;-62
2023/05/24 01:36:16;;;;;;;9.10;8.20;;;17.70;99.90;;;;;;6275611;28;20470;-62
2023/05/24 01:39:21;;;;;;;8.67;7.87;;;17.70;99.90;;;;;;6274984;28;20473;-62
2023/05/24 01:42:29;;;;;;;9.37;8.50;;;17.70;99.90;;;;;;6275443;28;20462;-62
2023/05/24 01:45:39;;;;;;;12.83;8.87;;;17.70;99.90;;;;;;6275056;28;20484;-62
2023/05/24 01:48:54;;;;;;;8.73;7.93;;;17.70;99.90;;;;;;6274889;28;20467;-62
2023/05/24 01:52:03;;;;;;;9.50;8.60;;;17.60;99.90;;;;;;6248271;28;20493;-62
2023/05/24 01:55:09;;;;;;;9.50;8.60;;;17.60;99.90;;;;;;6274646;28;20482;-62
2023/05/24 01:58:16;;;;;;;9.57;8.67;;;17.70;99.90;;;;;;6274684;28;20521;-62
2023/05/24 02:01:19;;;;;;;8.80;8.00;;;17.70;99.90;;;;;;6274925;28;20516;-62
2023/05/24 02:04:24;;;;;;;10.10;7.50;;;17.70;99.90;;;;;;6274931;28;20565;-62
2023/05/24 02:07:27;;;;;;;9.93;9.03;;;17.70;99.90;;;;;;6274968;28;20469;-62
2023/05/24 02:10:30;;;;;;;8.47;7.60;;;17.70;99.90;;;;;;6273810;28;20496;-61
2023/05/24 02:13:35;;;;;;;9.53;8.63;;;17.80;99.90;;;;;;6274515;28;20600;-61
2023/05/24 02:16:41;;;;;;;9.00;8.20;;;17.80;99.90;;;;;;6274235;28;20231;-61
2023/05/24 02:19:44;;;;;;;8.70;7.90;;;17.80;99.90;;;;;;6274143;28;20479;-62
2023/05/24 02:22:48;;;;;;;9.20;7.63;;;17.70;99.90;;;;;;6274038;28;20454;-62
2023/05/24 02:25:51;;;;;;;9.73;8.63;;;17.70;99.90;;;;;;6274276;28;20442;-62
2023/05/24 02:28:55;;;;;;;10.03;9.00;;;17.80;99.90;;;;;;6273605;28;20298;-65
2023/05/24 02:31:59;;;;;;;10.67;8.10;;;17.80;99.90;;;;;;6273317;28;20759;-65
2023/05/24 02:35:02;;;;;;;10.37;9.33;;;17.80;99.90;;;;;;6274201;28;20484;-65
2023/05/24 02:38:05;;;;;;;9.23;8.40;;;17.70;99.90;;;;;;6274279;28;20747;-65
2023/05/24 02:41:10;;;;;;;9.60;8.70;;;17.70;99.90;;;;;;6274561;28;20508;-65
2023/05/24 02:44:15;;;;;;;9.40;8.53;;;17.70;99.90;;;;;;6274719;28;20507;-66
2023/05/24 02:47:18;;;;;;;9.53;8.27;;;17.60;99.90;;;;;;6275425;28;20477;-65
2023/05/24 02:50:21;;;;;;;9.47;8.57;;;17.60;99.90;;;;;;6289243;28;20496;-65
2023/05/24 02:53:24;;;;;;;9.90;9.00;;;17.60;99.90;;;;;;6272266;28;20620;-65
2023/05/24 02:56:28;;;;;;;11.27;9.33;;;17.60;99.90;;;;;;6249904;28;20477;-65
2023/05/24 02:59:32;;;;;;;9.37;8.47;;;17.60;99.90;;;;;;6249348;28;20470;-65
2023/05/24 03:02:37;;;;;;;9.80;8.80;;;17.70;99.90;;;;;;6249548;28;20532;-65
2023/05/24 03:05:40;;;;;;;9.17;8.40;;;17.70;99.90;;;;;;6249303;28;20467;-65
2023/05/24 03:08:43;;;;;;;10.17;9.00;;;17.60;99.90;;;;;;6249559;28;20475;-65
2023/05/24 03:11:47;;;;;;;8.87;8.03;;;17.60;99.90;;;;;;6249229;28;20470;-65
2023/05/24 03:14:51;;;;;;;10.80;9.70;;;17.60;99.90;;;;;;6248836;28;20501;-65
2023/05/24 03:17:55;;;;;;;10.27;9.27;;;17.60;99.90;;;;;;6249124;28;20473;-65
2023/05/24 03:20:59;;;;;;;11.00;9.87;;;17.60;99.90;;;;;;6267942;28;20780;-65
2023/05/24 03:24:02;;;;;;;11.10;9.87;;;17.50;99.90;;;;;;6278160;28;20798;-65
2023/05/24 03:27:06;;;;;;;10.53;9.50;;;17.50;99.90;;;;;;6278240;28;20474;-65
2023/05/24 03:30:11;;;;;;;9.93;9.00;;;17.40;99.90;;;;;;6277985;28;20473;-64
2023/05/24 03:33:14;;;;;;;9.43;8.63;;;17.50;99.90;;;;;;6278627;28;20466;-65
2023/05/24 03:36:19;;;;;;;12.50;9.77;;;17.50;99.90;;;;;;6278171;28;20476;-66
2023/05/24 03:39:22;;;;;;;10.60;9.17;;;17.50;99.90;;;;;;6278040;28;20556;-64
2023/05/24 03:42:25;;;;;;;9.63;8.73;;;17.50;99.90;;;;;;6275385;28;20982;-64
2023/05/24 03:45:30;;;;;;;12.17;11.00;;;17.60;99.90;;;;;;6276544;28;20488;-65
2023/05/24 03:48:42;;;;;;;10.03;9.13;;;17.60;99.90;;;;;;6277788;28;20470;-64
2023/05/24 03:51:45;;;;;;;9.17;8.37;;;17.50;99.90;;;;;;6277917;28;20508;-64
2023/05/24 03:54:48;;;;;;;10.67;9.63;;;17.60;99.90;;;;;;6277508;28;20474;-65
2023/05/24 03:57:51;;;;;;;11.40;10.30;;;17.60;99.90;;;;;;6277710;28;20480;-65
2023/05/24 04:00:56;;;;;;;10.90;10.00;;;17.60;99.90;;;;;;6277378;28;20479;-65
2023/05/24 04:04:00;;;;;;;11.10;10.03;;;17.70;99.90;;;;;;6277229;28;20466;-65
2023/05/24 04:07:03;;;;;;;10.27;9.27;;;17.70;99.90;;;;;;6277335;28;20477;-65
2023/05/24 04:10:08;;;;;;;10.03;9.13;;;17.70;99.90;;;;;;6259760;28;20481;-65
2023/05/24 04:13:11;;;;;;;10.73;9.73;;;17.70;99.90;;;;;;6277176;28;20984;-64
2023/05/24 04:16:15;;;;;;;9.93;8.90;;;17.70;99.90;;;;;;6277134;28;20564;-64
2023/05/24 04:19:19;;;;;;;11.20;10.00;;;17.70;99.90;;;;;;6276953;28;20480;-64
2023/05/24 04:22:22;;;;;;;13.77;11.97;;;17.70;99.90;;;;;;6277051;28;20517;-64
2023/05/24 04:25:28;;;;;;;10.40;9.40;;;17.70;99.90;;;;;;6276948;28;20786;-65
2023/05/24 04:28:32;;;;;;;11.50;9.97;;;17.60;99.90;;;;;;6276796;28;20477;-65
2023/05/24 04:31:36;;;;;;;10.67;9.57;;;17.60;99.90;;;;;;6276614;28;20486;-65
2023/05/24 04:34:41;;;;;;;10.13;9.13;;;17.70;99.90;;;;;;6276581;28;20466;-65
2023/05/24 04:37:47;;;;;;;11.17;10.10;;;17.70;99.90;;;;;;6278399;28;20488;-65
2023/05/24 04:40:50;;;;;;;10.00;9.10;;;17.70;99.90;;;;;;6279776;28;20512;-64
2023/05/24 04:43:53;;;;;;;11.97;10.60;;;17.80;99.90;;;;;;6278888;28;20453;-64
2023/05/24 04:46:58;;;;;;;12.30;11.10;;;17.70;99.90;;;;;;6276548;28;20730;-64
2023/05/24 04:50:02;;;;;;;11.20;10.07;;;17.70;99.90;;;;;;6276553;28;20811;-65
2023/05/24 04:53:05;;;;;;;10.50;9.43;;;17.70;99.90;;;;;;6276304;28;20968;-64
2023/05/24 04:56:08;;;;;;;11.10;10.13;;;17.70;99.90;;;;;;6276311;28;20481;-64
2023/05/24 04:59:12;;;;;;;12.53;11.37;;;17.70;99.90;;;;;;6276071;28;20466;-64
2023/05/24 05:02:16;;;;;;;12.90;11.50;;;17.60;99.90;;;;;;6276250;28;20465;-64
2023/05/24 05:05:20;;;;;;;10.67;9.57;;;17.60;99.90;;;;;;6276346;28;20474;-65
2023/05/24 05:08:23;;;;;;;10.97;9.87;;;17.60;99.90;;;;;;6276269;28;20477;-65
2023/05/24 05:11:27;;;;;;;12.63;11.03;;;17.60;99.90;;;;;;6275729;28;20845;-65
2023/05/24 05:14:30;;;;;;;11.70;10.77;;;17.60;99.90;;;;;;6275627;28;20475;-66
2023/05/24 05:17:35;;;;;;;11.87;10.73;;;17.60;99.90;;;;;;6275792;28;20577;-65
2023/05/24 05:20:38;;;;;;;11.50;10.30;;;17.60;99.90;;;;;;6275471;28;20805;-65
2023/05/24 05:23:41;;;;;;;12.17;10.27;;;17.70;99.90;;;;;;6275514;28;20481;-65
2023/05/24 05:26:44;;;;;;;11.97;10.87;;;17.70;99.90;;;;;;6275659;28;20233;-65
2023/05/24 05:29:48;;;;;;;11.50;10.37;;;17.80;99.90;;;;;;6275402;28;20477;-65
2023/05/24 05:32:52;;;;;;;12.17;10.57;;;17.80;99.90;;;;;;6275620;28;20965;-66
2023/05/24 05:35:55;;;;;;;11.40;10.30;;;17.80;99.90;;;;;;6274841;28;20912;-66
2023/05/24 05:38:59;;;;;;;13.30;12.10;;;17.90;99.90;;;;;;6275394;28;20977;-67
2023/05/24 05:42:02;;;;;;;12.17;11.00;;;17.90;99.90;;;;;;6274987;28;20223;-66
2023/05/24 05:45:06;;;;;;;13.13;11.90;;;17.90;99.90;;;;;;6274687;28;20364;-65
2023/05/24 05:48:11;;;;;;;12.13;10.93;;;17.90;99.90;;;;;;6275071;28;21007;-65
2023/05/24 05:51:14;;;;;;;13.20;11.90;;;17.90;99.90;;;;;;6274883;28;20485;-65
2023/05/24 05:54:17;;;;;;;12.40;11.30;;;18.00;99.90;;;;;;6274953;28;20485;-64
2023/05/24 05:57:22;;;;;;;11.93;10.83;;;18.00;99.90;;;;;;6274779;28;20476;-65
2023/05/24 06:00:26;;;;;;;12.90;11.63;;;18.00;99.90;;;;;;6274409;28;20497;-65
2023/05/24 06:03:31;;;;;;;16.37;11.80;;;17.90;99.90;;;;;;6274914;28;20470;-65
2023/05/24 06:06:34;;;;;;;13.87;11.63;;;17.90;99.90;;;;;;6270374;28;20892;-65
2023/05/24 06:09:37;;;;;;;11.70;10.43;;;18.00;99.90;;;;;;6274916;28;20473;-65
2023/05/24 06:12:40;;;;;;;11.13;10.07;;;18.00;99.90;;;;;;6275072;28;20466;-66
2023/05/24 06:15:44;;;;;;;12.33;11.20;;;18.00;99.90;;;;;;6274625;28;20477;-66
2023/05/24 06:18:48;;;;;;;10.47;9.47;;;18.00;99.90;;;;;;6274496;28;20466;-65
2023/05/24 06:22:07;;;;;;;10.33;9.33;;;18.00;99.90;;;;;;6274680;28;20748;-65
2023/05/24 06:25:14;;;;;;;11.23;10.20;;;18.00;99.90;;;;;;6274746;28;20976;-65
2023/05/24 06:28:17;;;;;;;11.07;9.90;;;18.00;99.90;;;;;;6274366;28;20466;-65
2023/05/24 06:31:20;;;;;;;10.90;9.90;;;18.00;99.90;;;;;;6274989;28;20242;-65
2023/05/24 06:34:26;;;;;;;9.20;8.50;;;18.10;99.90;;;;;;6275417;28;20500;-65
2023/05/24 06:37:30;;;;;;;8.77;8.00;;;18.10;99.90;;;;;;6274684;28;20231;-65
2023/05/24 06:40:33;;;;;;;9.50;8.60;;;18.10;99.90;;;;;;6273992;28;20470;-65
2023/05/24 06:43:36;;;;;;;8.60;7.70;;;18.10;99.90;;;;;;6273854;28;20670;-66
2023/05/24 06:46:39;;;;;;;10.00;8.07;;;18.10;99.90;;;;;;6274273;28;20231;-66
2023/05/24 06:49:44;;;;;;;10.00;8.27;;;18.20;99.90;;;;;;6274119;28;20585;-66
2023/05/24 06:52:47;;;;;;;8.10;7.30;;;18.20;99.90;;;;;;6273876;28;20314;-65
2023/05/24 06:55:50;;;;;;;7.90;7.17;;;18.20;99.90;;;;;;6275886;28;20458;-65
2023/05/24 06:58:53;;;;;;;8.93;7.37;;;18.20;99.90;;;;;;6279078;28;20260;-64
2023/05/24 07:01:57;;;;;;;8.40;7.57;;;18.20;99.90;;;;;;6279043;28;20588;-64
2023/05/24 07:05:05;;;;;;;8.97;8.07;;;18.20;99.90;;;;;;6279290;28;20502;-65
2023/05/24 07:08:08;;;;;;;8.67;7.87;;;18.10;99.90;;;;;;6278820;28;20511;-65
2023/05/24 07:11:11;;;;;;;9.50;8.60;;;18.10;99.90;;;;;;6279082;28;20241;-65
2023/05/24 07:14:15;;;;;;;8.33;7.50;;;18.10;99.90;;;;;;6278792;28;20223;-65
2023/05/24 07:17:18;;;;;;;7.70;7.00;;;18.20;99.90;;;;;;6278973;28;20508;-67
2023/05/24 07:20:22;;;;;;;9.07;8.17;;;18.20;99.90;;;;;;6277989;28;20949;-66
2023/05/24 07:23:26;;;;;;;8.13;7.33;;;18.20;99.90;;;;;;6278790;28;20465;-67
2023/05/24 07:26:29;;;;;;;7.73;7.03;;;18.10;99.90;;;;;;6278080;28;20780;-63
2023/05/24 07:29:32;;;;;;;6.80;6.20;;;18.10;99.90;;;;;;6258543;28;20648;-63
2023/05/24 07:32:36;;;;;;;8.30;7.50;;;18.20;99.90;;;;;;6276054;28;20564;-63
2023/05/24 07:35:41;;;;;;;10.13;6.77;;;18.20;99.90;;;;;;6277279;28;20234;-66
2023/05/24 07:38:45;;;;;;;8.03;7.23;;;18.20;99.90;;;;;;6278416;28;20593;-64
2023/05/24 07:41:49;;;;;;;6.67;6.17;;;18.20;99.90;;;;;;6277873;28;20227;-66
2023/05/24 07:44:52;;;;;;;7.77;7.07;;;18.20;99.90;;;;;;6278194;28;20229;-66
2023/05/24 07:47:59;;;;;;;8.90;8.10;;;18.20;99.90;;;;;;6277686;28;20474;-67
2023/05/24 07:51:05;;;;;;;8.43;7.63;;;18.10;99.90;;;;;;6277506;28;20585;-66
2023/05/24 07:54:08;;;;;;;8.90;8.10;;;18.00;99.90;;;;;;6277890;28;20556;-66
2023/05/24 07:57:11;;;;;;;7.53;6.83;;;17.90;99.90;;;;;;6278249;28;20489;-66
2023/05/24 08:00:16;;;;;;;8.80;8.00;;;17.90;99.90;;;;;;6278090;28;20586;-64
2023/05/24 08:03:19;;;;;;;9.00;8.10;;;18.00;99.90;;;;;;6279004;28;20246;-67
2023/05/24 08:06:24;;;;;;;8.60;7.70;;;18.00;99.90;;;;;;6278224;28;20478;-63
2023/05/24 08:09:28;;;;;;;9.53;7.90;;;18.00;99.90;;;;;;6277720;28;20266;-63
2023/05/24 08:12:31;;;;;;;10.50;9.53;;;18.00;99.90;;;;;;6277950;28;20239;-62
2023/05/24 08:15:35;;;;;;;10.33;9.43;;;18.00;99.90;;;;;;6273107;28;20506;-62
2023/05/24 08:18:38;;;;;;;9.37;7.90;;;17.90;99.90;;;;;;6278329;28;20243;-65
2023/05/24 08:21:42;;;;;;;11.77;10.57;;;17.80;99.90;;;;;;6290809;28;20524;-65
2023/05/24 08:24:46;;;;;;;11.63;9.93;;;17.70;99.90;;;;;;6288414;28;20476;-66
2023/05/24 08:27:50;;;;;;;11.07;9.97;;;17.80;99.90;;;;;;6280705;28;20553;-63
2023/05/24 08:30:53;;;;;;;11.90;10.70;;;17.80;99.90;;;;;;6277734;28;20301;-63
2023/05/24 08:33:56;;;;;;;11.07;10.07;;;17.80;99.90;;;;;;6278176;28;20500;-62
2023/05/24 08:37:01;;;;;;;11.57;10.17;;;17.80;99.90;;;;;;6278263;28;20223;-65
2023/05/24 08:40:06;;;;;;;10.63;9.67;;;17.80;99.90;;;;;;6277561;28;20376;-65
2023/05/24 08:43:11;;;;;;;11.10;10.07;;;17.90;99.90;;;;;;6277830;28;20488;-63
2023/05/24 08:46:15;;;;;;;11.10;9.97;;;18.00;99.90;;;;;;6276098;28;20482;-62
2023/05/24 08:49:18;;;;;;;10.73;9.73;;;18.00;99.90;;;;;;6274050;28;20230;-64
2023/05/24 08:52:24;;;;;;;10.93;9.83;;;18.00;99.90;;;;;;6274013;28;20934;-62
2023/05/24 08:55:27;;;;;;;9.40;8.60;;;18.10;99.90;;;;;;6276334;28;20564;-62
2023/05/24 08:58:34;;;;;;;10.50;9.60;;;18.10;99.90;;;;;;6275874;28;20232;-62
2023/05/24 09:01:40;;;;;;;8.60;7.80;;;18.10;99.90;;;;;;6276137;28;20478;-62
2023/05/24 09:04:44;;;;;;;9.23;8.20;;;18.00;99.90;;;;;;6273836;28;20228;-63
2023/05/24 09:07:49;;;;;;;9.70;8.70;;;18.00;99.90;;;;;;6276033;28;20580;-65
2023/05/24 09:10:53;;;;;;;10.63;9.60;;;18.00;99.90;;;;;;6250722;28;20991;-64
2023/05/24 09:13:58;;;;;;;10.00;9.00;;;18.00;99.90;;;;;;6266992;28;20199;-64
2023/05/24 09:17:02;;;;;;;8.93;8.13;;;18.00;99.90;;;;;;6271522;28;20448;-63
2023/05/24 09:20:08;;;;;;;10.67;8.63;;;17.90;99.90;;;;;;6274493;28;20852;-64
2023/05/24 09:23:14;;;;;;;10.30;9.30;;;17.80;99.90;;;;;;6275633;28;20468;-63
2023/05/24 09:26:17;;;;;;;9.37;8.43;;;17.70;99.90;;;;;;6275622;28;20861;-63
2023/05/24 09:29:23;;;;;;;11.47;10.20;;;17.60;99.90;;;;;;6275644;28;20466;-62
2023/05/24 09:32:27;;;;;;;11.53;10.50;;;17.60;99.90;;;;;;6275836;28;20466;-63
2023/05/24 09:35:31;;;;;;;9.90;9.00;;;17.40;99.90;;;;;;6275037;28;20367;-62
2023/05/24 09:38:35;;;;;;;10.90;9.33;;;17.40;99.90;;;;;;6274947;28;20466;-62
2023/05/24 09:41:43;;;;;;;11.70;10.50;;;16.90;99.90;;;;;;6275227;28;20517;-62
2023/05/24 09:44:46;;;;;;;10.80;9.73;;;16.90;99.90;;;;;;6274816;28;20484;-62
2023/05/24 09:47:52;;;;;;;11.40;10.40;;;17.00;99.90;;;;;;6275131;28;20549;-62
2023/05/24 09:51:04;;;;;;;8.77;8.00;;;17.20;99.90;;;;;;6274398;28;20470;-63
2023/05/24 09:54:09;;;;;;;9.60;8.70;;;17.40;99.90;;;;;;6275367;28;20533;-63
2023/05/24 09:57:15;;;;;;;9.40;8.30;;;17.40;99.90;;;;;;6274602;28;20462;-63
2023/05/24 10:00:22;;;;;;;11.13;9.90;;;17.50;99.90;;;;;;6274726;28;20781;-61
2023/05/24 10:03:26;;;;;;;10.77;9.73;;;17.60;99.90;;;;;;6274621;28;20485;-61
2023/05/24 10:06:31;;;;;;;11.03;10.03;;;17.60;99.90;;;;;;6274594;28;20473;-61
2023/05/24 10:09:36;;;;;;;9.50;8.60;;;17.70;99.90;;;;;;6274359;28;20550;-61
2023/05/24 10:12:45;;;;;;;9.37;8.47;;;17.80;99.90;;;;;;6273608;28;20969;-61
2023/05/24 10:15:49;;;;;;;9.20;8.47;;;17.80;99.90;;;;;;6274201;28;20783;-61
2023/05/24 10:18:53;;;;;;;10.10;9.20;;;17.80;99.90;;;;;;6273688;28;20489;-61
2023/05/24 10:21:58;;;;;;;9.97;9.00;;;17.90;99.90;;;;;;6273531;28;20477;-61
2023/05/24 10:25:05;;;;;;;9.70;8.90;;;18.00;99.90;;;;;;6264916;28;20517;-61
2023/05/24 10:28:12;;;;;;;8.90;8.10;;;18.10;99.90;;;;;;6273679;28;20486;-62
2023/05/24 10:31:19;;;;;;;9.13;8.33;;;18.10;99.90;;;;;;6273603;28;20876;-62
2023/05/24 10:34:23;;;;;;;11.00;8.27;;;18.10;99.90;;;;;;6273694;28;20623;-61
2023/05/24 10:37:26;;;;;;;9.97;9.17;;;18.20;99.90;;;;;;6274188;28;21076;-61
2023/05/24 10:40:32;;;;;;;9.17;8.37;;;18.20;99.90;;;;;;6273620;28;20481;-61
2023/05/24 10:43:36;;;;;;;9.20;8.40;;;18.30;99.90;;;;;;6273825;28;20801;-61
2023/05/24 10:47:07;;;;;;;9.20;8.40;;;18.30;99.90;;;;;;6273481;28;20304;-61
2023/05/24 10:50:20;;;;;;;8.40;7.50;;;18.40;99.90;;;;;;6273706;28;20230;-62
2023/05/24 10:53:26;;;;;;;9.27;8.47;;;18.60;99.90;;;;;;6273913;28;20358;-61
2023/05/24 10:56:30;;;;;;;10.43;9.33;;;18.80;99.90;;;;;;6273328;28;20238;-61
2023/05/24 10:59:37;;;;;;;10.33;9.40;;;19.00;99.90;;;;;;6252586;28;20229;-62
2023/05/24 11:02:41;;;;;;;19.03;17.00;;;19.10;99.90;;;;;;6273602;28;20227;-64
2023/05/24 11:05:53;;;;;;;12.43;11.20;;;19.30;99.90;;;;;;6273569;28;20302;-63
2023/05/24 11:09:00;;;;;;;11.27;10.17;;;19.50;99.90;;;;;;6273315;28;20536;-63
2023/05/24 11:12:08;;;;;;;10.10;9.20;;;19.60;99.90;;;;;;6273516;28;20219;-63
2023/05/24 11:15:12;;;;;;;9.83;8.93;;;19.70;99.90;;;;;;6273343;28;20801;-63
2023/05/24 11:18:15;;;;;;;9.67;8.77;;;19.80;99.90;;;;;;6273169;28;20567;-64
2023/05/24 11:21:20;;;;;;;9.93;9.00;;;19.80;99.90;;;;;;6272890;28;20318;-61
2023/05/24 11:24:24;;;;;;;9.70;8.80;;;19.90;99.90;;;;;;6273406;28;20223;-62
2023/05/24 11:27:30;;;;;;;10.50;9.60;;;19.90;99.90;;;;;;6268830;28;20245;-62
2023/05/24 11:30:34;;;;;;;9.87;8.97;;;19.90;99.90;;;;;;6272198;28;20544;-63
2023/05/24 11:33:42;;;;;;;11.07;10.00;;;20.00;99.90;;;;;;6272927;28;20235;-66
2023/05/24 11:36:46;;;;;;;10.47;9.47;;;20.10;99.90;;;;;;6273482;28;20258;-65
2023/05/24 11:39:51;;;;;;;10.63;9.53;;;20.20;99.90;;;;;;6273222;28;20338;-63
2023/05/24 11:42:56;;;;;;;10.03;9.20;;;20.20;99.90;;;;;;6275179;28;20229;-65
2023/05/24 11:46:00;;;;;;;9.33;8.43;;;20.20;99.90;;;;;;6277678;28;20227;-65
2023/05/24 11:49:03;;;;;;;9.97;9.17;;;20.30;99.90;;;;;;6277623;28;20655;-64
2023/05/24 11:52:07;;;;;;;12.27;10.43;;;20.30;99.90;;;;;;6277662;28;20228;-65
2023/05/24 11:55:15;;;;;;;11.00;10.10;;;20.20;99.90;;;;;;6277736;28;20241;-65
2023/05/24 11:58:23;;;;;;;9.97;8.97;;;20.20;99.90;;;;;;6277652;28;20223;-65
2023/05/24 12:01:27;;;;;;;9.80;8.87;;;20.20;99.90;;;;;;6277754;28;20727;-64
2023/05/24 12:04:30;;;;;;;10.93;9.90;;;20.20;99.90;;;;;;6277466;28;20679;-66
2023/05/24 12:07:34;;;;;;;11.43;10.00;;;20.10;99.90;;;;;;6277258;28;20369;-64
2023/05/24 12:10:40;;;;;;;9.57;8.60;;;20.00;99.90;;;;;;6277185;28;20249;-64
2023/05/24 12:13:46;;;;;;;10.60;9.57;;;20.00;99.90;;;;;;6276916;28;20370;-63
2023/05/24 12:16:49;;;;;;;10.40;9.50;;;20.00;99.90;;;;;;6277077;28;20238;-62
2023/05/24 12:19:53;;;;;;;10.43;9.53;;;20.00;99.90;;;;;;6276012;28;20231;-63
2023/05/24 12:22:56;;;;;;;9.60;8.70;;;20.00;99.90;;;;;;6276903;28;20223;-63
2023/05/24 12:26:00;;;;;;;11.70;10.60;;;20.00;99.90;;;;;;6276986;28;20207;-63
2023/05/24 12:29:05;;;;;;;11.67;10.50;;;19.90;99.90;;;;;;6271990;28;20238;-63
2023/05/24 12:32:11;;;;;;;12.80;10.93;;;19.90;99.90;;;;;;6276635;28;20196;-62
2023/05/24 12:35:18;;;;;;;12.67;11.47;;;19.80;99.90;;;;;;6277074;28;20262;-62
2023/05/24 12:38:24;;;;;;;10.53;9.63;;;19.80;99.90;;;;;;6276612;28;20325;-63
2023/05/24 12:41:31;;;;;;;10.90;10.00;;;19.70;99.90;;;;;;6276518;28;20227;-63
2023/05/24 12:44:37;;;;;;;12.03;10.83;;;19.60;99.90;;;;;;6275262;28;20294;-63
2023/05/24 12:47:40;;;;;;;11.30;10.13;;;19.60;99.90;;;;;;6273866;28;20224;-63
2023/05/24 12:50:44;;;;;;;12.23;11.20;;;19.60;99.90;;;;;;6275958;28;20235;-64
2023/05/24 12:53:47;;;;;;;12.00;9.97;;;19.50;99.90;;;;;;6276292;28;20269;-63
2023/05/24 12:56:51;;;;;;;11.37;10.43;;;19.50;99.90;;;;;;6275851;28;20245;-63
2023/05/24 12:59:59;;;;;;;30.73;11.90;;;19.40;99.90;;;;;;6276236;28;20655;-63
2023/05/24 13:03:02;;;;;;;11.57;10.43;;;19.40;99.90;;;;;;6276260;28;20223;-63
2023/05/24 13:06:06;;;;;;;11.13;10.07;;;19.40;99.90;;;;;;6276090;28;20227;-63
2023/05/24 13:09:10;;;;;;;10.53;9.63;;;19.30;99.90;;;;;;6275680;28;20649;-63
2023/05/24 13:12:13;;;;;;;10.33;9.43;;;19.30;99.90;;;;;;6276032;28;20242;-63
2023/05/24 13:15:18;;;;;;;9.40;8.50;;;19.30;99.90;;;;;;6275607;28;20231;-64
2023/05/24 13:18:21;;;;;;;7.43;6.77;;;19.30;99.90;;;;;;6275481;28;20242;-64
2023/05/24 13:21:25;;;;;;;5.97;5.47;;;19.20;99.90;;;;;;6275168;28;20242;-65
2023/05/24 13:24:28;;;;;;;5.80;5.40;;;19.10;99.90;;;;;;6275481;28;20228;-61
2023/05/24 13:27:32;;;;;;;6.07;5.47;;;19.00;99.90;;;;;;6275336;28;20238;-61
2023/05/24 13:30:37;;;;;;;5.90;5.40;;;19.00;99.90;;;;;;6274145;28;20236;-61
2023/05/24 13:33:40;;;;;;;5.17;4.77;;;19.00;99.90;;;;;;6275372;28;20227;-61
2023/05/24 13:36:44;;;;;;;4.47;4.07;;;19.00;99.90;;;;;;6273533;28;20245;-60
2023/05/24 13:39:48;;;;;;;4.20;3.90;;;19.10;99.90;;;;;;6271905;28;20298;-60
2023/05/24 13:42:51;;;;;;;4.50;4.20;;;19.00;99.90;;;;;;6274241;28;20223;-60
2023/05/24 13:45:56;;;;;;;4.43;4.13;;;19.10;99.90;;;;;;6272265;28;20742;-60
2023/05/24 13:48:59;;;;;;;5.33;4.90;;;19.10;99.90;;;;;;6274301;28;20231;-60
2023/05/24 13:52:03;;;;;;;6.90;4.60;;;19.00;99.90;;;;;;6274804;28;20683;-60
2023/05/24 13:55:07;;;;;;;5.03;4.63;;;19.00;99.90;;;;;;6249826;28;20255;-61
2023/05/24 13:58:10;;;;;;;5.10;4.70;;;19.00;99.90;;;;;;6263244;28;20269;-61
2023/05/24 14:01:15;;;;;;;5.00;4.60;;;18.90;99.90;;;;;;6274475;28;20220;-61
2023/05/24 14:04:18;;;;;;;6.03;5.53;;;18.80;99.90;;;;;;6274881;28;20304;-61
2023/05/24 14:07:22;;;;;;;5.33;4.83;;;18.80;99.90;;;;;;6274207;28;20235;-61
2023/05/24 14:10:25;;;;;;;6.77;6.17;;;18.70;99.90;;;;;;6273954;28;20227;-61
2023/05/24 14:13:28;;;;;;;6.27;5.70;;;18.60;99.90;;;;;;6274220;28;20227;-61
2023/05/24 14:16:36;;;;;;;6.23;5.73;;;18.50;99.90;;;;;;6274768;28;20227;-61
2023/05/24 14:19:39;;;;;;;5.90;5.40;;;18.40;99.90;;;;;;6274033;28;20315;-61
2023/05/24 14:22:43;;;;;;;6.70;6.20;;;18.40;99.90;;;;;;6274804;28;20702;-61
2023/05/24 14:25:46;;;;;;;6.17;5.57;;;18.40;99.90;;;;;;6275078;28;20691;-61
2023/05/24 14:28:49;;;;;;;6.60;6.00;;;18.40;99.90;;;;;;6274473;28;20568;-61
2023/05/24 14:31:57;;;;;;;6.80;6.20;;;18.50;99.90;;;;;;6274447;28;20220;-61
2023/05/24 14:35:00;;;;;;;6.50;5.90;;;18.40;99.90;;;;;;6274434;28;20773;-62
2023/05/24 14:38:04;;;;;;;7.10;6.50;;;18.30;99.90;;;;;;6269966;28;20278;-61
2023/05/24 14:41:08;;;;;;;6.70;6.10;;;18.30;99.90;;;;;;6273563;28;20488;-62
2023/05/24 14:44:11;;;;;;;8.03;7.33;;;18.20;99.90;;;;;;6273488;28;20640;-62
2023/05/24 14:47:15;;;;;;;6.87;6.20;;;18.20;99.90;;;;;;6273654;28;20203;-64
2023/05/24 14:50:18;;;;;;;6.70;6.20;;;18.20;99.90;;;;;;6274434;28;20481;-62
2023/05/24 14:53:22;;;;;;;7.50;6.80;;;18.10;99.90;;;;;;6273711;28;20469;-66
2023/05/24 14:56:25;;;;;;;6.47;5.97;;;18.10;99.90;;;;;;6273728;28;20771;-66
2023/05/24 14:59:28;;;;;;;6.17;5.67;;;18.10;99.90;;;;;;6273772;28;20470;-67
2023/05/24 15:02:33;;;;;;;7.67;6.17;;;18.10;99.90;;;;;;6271359;28;20500;-67
2023/05/24 15:05:36;;;;;;;7.97;7.37;;;18.10;99.90;;;;;;6272666;28;20235;-66
2023/05/24 15:08:39;;;;;;;6.17;5.67;;;18.10;99.90;;;;;;6273376;28;20466;-66
2023/05/24 15:11:42;;;;;;;7.97;7.27;;;18.20;99.90;;;;;;6273570;28;20469;-65
2023/05/24 15:14:46;;;;;;;7.13;6.43;;;18.20;99.90;;;;;;6273117;28;20462;-65
2023/05/24 15:17:50;;;;;;;7.07;6.50;;;18.20;99.90;;;;;;6272073;28;20233;-70
2023/05/24 15:20:54;;;;;;;8.60;7.90;;;18.20;99.90;;;;;;6277843;28;20466;-70
2023/05/24 15:23:58;;;;;;;6.90;6.30;;;18.20;99.90;;;;;;6276733;28;20326;-71
2023/05/24 15:27:01;;;;;;;7.10;6.50;;;18.20;99.90;;;;;;6271848;28;20235;-65
2023/05/24 15:30:06;;;;;;;6.93;6.23;;;18.20;99.90;;;;;;6269590;28;21021;-64
2023/05/24 15:33:10;;;;;;;7.93;7.30;;;18.20;99.90;;;;;;6278226;28;20470;-63
2023/05/24 15:36:15;;;;;;;7.07;6.47;;;18.20;99.90;;;;;;6278029;28;20234;-68
2023/05/24 15:39:20;;;;;;;7.17;6.47;;;18.20;99.90;;;;;;6277717;28;20235;-64
2023/05/24 15:42:24;;;;;;;7.00;6.30;;;18.10;99.90;;;;;;6273386;28;20579;-65
2023/05/24 15:45:27;;;;;;;6.40;5.90;;;18.10;99.90;;;;;;6260695;28;20474;-64
2023/05/24 15:48:32;;;;;;;7.33;6.63;;;18.10;99.90;;;;;;6277886;28;20306;-64
2023/05/24 15:51:36;;;;;;;7.30;6.60;;;18.00;99.90;;;;;;6277968;28;20607;-64
2023/05/24 15:54:42;;;;;;;6.93;6.33;;;18.00;99.90;;;;;;6262102;28;20463;-66